sensor_id;sensor_type;location;lat;lon;timestamp;pressure;altitude;pressure_sealevel;temperature;humidity
2000;BME280;1001;48.87406500;9.59633600;2023-02-28T00:01:27;95570.88;;;-3.01;78.82
2000;BME280;1001;48.87406500;9.59633600;2023-02-28T00:03:54;95580.97;;;-2.99;78.60
2000;BME280;1001;48.87406500;9.59633600;2023-02-28T00:06:21;95577.88;;;-3.03;79.86
2000;BME280;1001;48.87406500;9.59633600;2023-02-28T00:08:49;95573.72;;;-3.04;79.91
2000;BME280;1001;48.87406500;9.59633600;2023-02-28T00:11:16;95580.81;;;-3.07;80.93
2000;BME280;1001;48.87406500;9.59633600;2023-02-28T00:13:45;95570.34;;;-3.14;81.28
2000;BME280;1001;48.87406500;9.59633600;2023-02-28T00:16:18;95576.13;;;-3.12;81.09
2000;BME280;1001;48.87406500;9.59633600;2023-02-28T00:18:45;95570.19;;;-3.12;81.13
2000;BME280;1001;48.87406500;9.59633600;2023-02-28T00:21:12;95571.00;;;-3.12;81.49
2000;BME280;1001;48.87406500;9.59633600;2023-02-28T00:23:39;95569.53;;;-3.14;81.50
2000;BME280;1001;48.87406500;9.59633600;2023-02-28T00:26:07;95565.06;;;-3.12;82.38
2000;BME280;1001;48.87406500;9.59633600;2023-02-28T00:28:33;95568.44;;;-3.12;81.71
2000;BME280;1001;48.87406500;9.59633600;2023-02-28T00:31:00;95561.59;;;-3.11;82.01
2000;BME280;1001;48.87406500;9.59633600;2023-02-28T00:33:27;95563.22;;;-3.10;82.51
2000;BME280;1001;48.87406500;9.59633600;2023-02-28T00:36:01;95556.47;;;-3.11;83.07
2000;BME280;1001;48.87406500;9.59633600;2023-02-28T00:38:28;95558.78;;;-3.08;82.84
2000;BME280;1001;48.87406500;9.59633600;2023-02-28T00:40:55;95559.28;;;-3.14;83.50
2000;BME280;1001;48.87406500;9.59633600;2023-02-28T00:43:23;95566.28;;;-3.16;84.57
2000;BME280;1001;48.87406500;9.59633600;2023-02-28T00:45:49;95561.44;;;-3.19;84.74
2000;BME280;1001;48.87406500;9.59633600;2023-02-28T00:48:16;95565.09;;;-3.22;84.50
2000;BME280;1001;48.87406500;9.59633600;2023-02-28T00:50:42;95559.84;;;-3.20;84.37
2000;BME280;1001;48.87406500;9.59633600;2023-02-28T00:53:09;95560.50;;;-3.18;84.72
2000;BME280;1001;48.87406500;9.59633600;2023-02-28T00:55:35;95559.84;;;-3.20;85.10
2000;BME280;1001;48.87406500;9.59633600;2023-02-28T00:58:02;95560.09;;;-3.23;85.28
2000;BME280;1001;48.87406500;9.59633600;2023-02-28T01:00:30;95557.00;;;-3.27;85.52
2000;BME280;1001;48.87406500;9.59633600;2023-02-28T01:02:56;95563.88;;;-3.27;85.95
2000;BME280;1001;48.87406500;9.59633600;2023-02-28T01:05:23;95556.88;;;-3.25;86.38
2000;BME280;1001;48.87406500;9.59633600;2023-02-28T01:07:50;95557.81;;;-3.26;86.50
2000;BME280;1001;48.87406500;9.59633600;2023-02-28T01:10:16;95555.25;;;-3.26;86.99
2000;BME280;1001;48.87406500;9.59633600;2023-02-28T01:12:43;95555.66;;;-3.21;87.06
2000;BME280;1001;48.87406500;9.59633600;2023-02-28T01:15:10;95554.56;;;-3.28;87.73
2000;BME280;1001;48.87406500;9.59633600;2023-02-28T01:17:38;95554.56;;;-3.28;88.24
2000;BME280;1001;48.87406500;9.59633600;2023-02-28T01:20:05;95544.50;;;-3.30;88.14
2000;BME280;1001;48.87406500;9.59633600;2023-02-28T01:22:32;95549.34;;;-3.27;88.03
2000;BME280;1001;48.87406500;9.59633600;2023-02-28T01:25:00;95546.78;;;-3.27;87.79
2000;BME280;1001;48.87406500;9.59633600;2023-02-28T01:27:27;95547.47;;;-3.25;88.25
2000;BME280;1001;48.87406500;9.59633600;2023-02-28T01:29:54;95553.78;;;-3.29;88.06
2000;BME280;1001;48.87406500;9.59633600;2023-02-28T01:32:20;95548.78;;;-3.30;88.93
2000;BME280;1001;48.87406500;9.59633600;2023-02-28T01:34:48;95549.03;;;-3.33;88.45
2000;BME280;1001;48.87406500;9.59633600;2023-02-28T01:37:15;95545.81;;;-3.26;88.59
2000;BME280;1001;48.87406500;9.59633600;2023-02-28T01:39:41;95544.63;;;-3.31;88.75
2000;BME280;1001;48.87406500;9.59633600;2023-02-28T01:42:08;95541.00;;;-3.29;88.53
2000;BME280;1001;48.87406500;9.59633600;2023-02-28T01:45:02;95551.50;;;-3.22;88.41
2000;BME280;1001;48.87406500;9.59633600;2023-02-28T01:47:32;95551.09;;;-3.27;88.97
2000;BME280;1001;48.87406500;9.59633600;2023-02-28T01:50:05;95539.63;;;-3.33;88.87
2000;BME280;1001;48.87406500;9.59633600;2023-02-28T01:52:33;95539.91;;;-3.26;89.12
2000;BME280;1001;48.87406500;9.59633600;2023-02-28T01:55:02;95543.56;;;-3.29;89.35
2000;BME280;1001;48.87406500;9.59633600;2023-02-28T01:57:34;95547.31;;;-3.23;89.16
2000;BME280;1001;48.87406500;9.59633600;2023-02-28T02:00:06;95543.28;;;-3.26;89.19
2000;BME280;1001;48.87406500;9.59633600;2023-02-28T02:02:35;95541.53;;;-3.25;89.17
2000;BME280;1001;48.87406500;9.59633600;2023-02-28T02:05:06;95546.91;;;-3.28;89.54
2000;BME280;1001;48.87406500;9.59633600;2023-02-28T02:07:35;95534.13;;;-3.19;90.18
2000;BME280;1001;48.87406500;9.59633600;2023-02-28T02:10:06;95528.50;;;-3.22;89.87
2000;BME280;1001;48.87406500;9.59633600;2023-02-28T02:12:50;95525.94;;;-3.22;89.67
2000;BME280;1001;48.87406500;9.59633600;2023-02-28T02:15:25;95520.94;;;-3.24;90.06
2000;BME280;1001;48.87406500;9.59633600;2023-02-28T02:17:58;95530.22;;;-3.23;90.72
2000;BME280;1001;48.87406500;9.59633600;2023-02-28T02:20:44;95524.31;;;-3.23;90.73
2000;BME280;1001;48.87406500;9.59633600;2023-02-28T02:29:40;95514.22;;;-3.25;91.22
2000;BME280;1001;48.87406500;9.59633600;2023-02-28T02:32:19;95508.28;;;-3.25;91.37
2000;BME280;1001;48.87406500;9.59633600;2023-02-28T02:35:00;95511.53;;;-3.23;91.57
2000;BME280;1001;48.87406500;9.59633600;2023-02-28T02:37:36;95516.91;;;-3.26;91.46
2000;BME280;1001;48.87406500;9.59633600;2023-02-28T02:40:11;95523.91;;;-3.28;91.60
2000;BME280;1001;48.87406500;9.59633600;2023-02-28T02:42:43;95510.44;;;-3.30;91.64
2000;BME280;1001;48.87406500;9.59633600;2023-02-28T02:45:14;95521.88;;;-3.34;91.82
2000;BME280;1001;48.87406500;9.59633600;2023-02-28T02:47:43;95517.19;;;-3.29;92.04
2000;BME280;1001;48.87406500;9.59633600;2023-02-28T02:50:15;95517.44;;;-3.32;92.42
2000;BME280;1001;48.87406500;9.59633600;2023-02-28T02:52:48;95518.25;;;-3.32;92.62
2000;BME280;1001;48.87406500;9.59633600;2023-02-28T02:55:17;95517.19;;;-3.39;92.96
2000;BME280;1001;48.87406500;9.59633600;2023-02-28T02:57:47;95514.06;;;-3.33;93.09
2000;BME280;1001;48.87406500;9.59633600;2023-02-28T03:00:17;95511.66;;;-3.34;93.21
2000;BME280;1001;48.87406500;9.59633600;2023-02-28T03:02:47;95518.25;;;-3.41;93.52
2000;BME280;1001;48.87406500;9.59633600;2023-02-28T03:05:19;95512.06;;;-3.39;93.34
2000;BME280;1001;48.87406500;9.59633600;2023-02-28T03:07:47;95508.56;;;-3.38;93.57
2000;BME280;1001;48.87406500;9.59633600;2023-02-28T03:10:29;95506.13;;;-3.39;93.72
2000;BME280;1001;48.87406500;9.59633600;2023-02-28T03:13:08;95512.31;;;-3.42;93.78
2000;BME280;1001;48.87406500;9.59633600;2023-02-28T03:15:43;95507.06;;;-3.40;93.88
2000;BME280;1001;48.87406500;9.59633600;2023-02-28T03:18:19;95495.91;;;-3.39;93.98
2000;BME280;1001;48.87406500;9.59633600;2023-02-28T03:20:57;95503.72;;;-3.31;94.23
2000;BME280;1001;48.87406500;9.59633600;2023-02-28T03:23:32;95497.13;;;-3.34;93.56
2000;BME280;1001;48.87406500;9.59633600;2023-02-28T03:26:07;95495.00;;;-3.38;94.04
2000;BME280;1001;48.87406500;9.59633600;2023-02-28T03:28:42;95507.22;;;-3.32;93.80
2000;BME280;1001;48.87406500;9.59633600;2023-02-28T03:31:16;95501.44;;;-3.34;93.95
2000;BME280;1001;48.87406500;9.59633600;2023-02-28T03:33:47;95504.91;;;-3.26;93.96
2000;BME280;1001;48.87406500;9.59633600;2023-02-28T03:36:25;95506.81;;;-3.28;93.75
2000;BME280;1001;48.87406500;9.59633600;2023-02-28T03:38:56;95508.16;;;-3.24;93.69
2000;BME280;1001;48.87406500;9.59633600;2023-02-28T03:41:30;95513.66;;;-3.28;93.79
2000;BME280;1001;48.87406500;9.59633600;2023-02-28T03:44:02;95511.94;;;-3.28;93.71
2000;BME280;1001;48.87406500;9.59633600;2023-02-28T03:46:34;95518.53;;;-3.25;93.88
2000;BME280;1001;48.87406500;9.59633600;2023-02-28T03:49:08;95513.25;;;-3.24;93.50
2000;BME280;1001;48.87406500;9.59633600;2023-02-28T03:51:40;95510.44;;;-3.21;93.99
2000;BME280;1001;48.87406500;9.59633600;2023-02-28T03:54:10;95517.97;;;-3.19;93.68
2000;BME280;1001;48.87406500;9.59633600;2023-02-28T03:56:42;95517.31;;;-3.21;94.00
2000;BME280;1001;48.87406500;9.59633600;2023-02-28T03:59:14;95521.91;;;-3.15;93.86
2000;BME280;1001;48.87406500;9.59633600;2023-02-28T04:01:45;95527.00;;;-3.15;93.88
2000;BME280;1001;48.87406500;9.59633600;2023-02-28T04:04:14;95522.00;;;-3.07;93.92
2000;BME280;1001;48.87406500;9.59633600;2023-02-28T04:06:44;95523.50;;;-3.14;93.83
2000;BME280;1001;48.87406500;9.59633600;2023-02-28T04:09:14;95526.19;;;-3.16;93.77
2000;BME280;1001;48.87406500;9.59633600;2023-02-28T04:11:42;95530.63;;;-3.08;93.99
2000;BME280;1001;48.87406500;9.59633600;2023-02-28T04:14:11;95519.19;;;-3.04;93.69
2000;BME280;1001;48.87406500;9.59633600;2023-02-28T04:16:39;95529.16;;;-3.01;93.98
2000;BME280;1001;48.87406500;9.59633600;2023-02-28T04:19:08;95528.59;;;-2.95;93.77
2000;BME280;1001;48.87406500;9.59633600;2023-02-28T04:21:38;95532.53;;;-3.01;94.46
2000;BME280;1001;48.87406500;9.59633600;2023-02-28T04:24:07;95538.00;;;-2.96;94.46
2000;BME280;1001;48.87406500;9.59633600;2023-02-28T04:26:35;95539.50;;;-2.93;94.56
2000;BME280;1001;48.87406500;9.59633600;2023-02-28T04:29:03;95544.09;;;-2.97;95.31
2000;BME280;1001;48.87406500;9.59633600;2023-02-28T04:31:30;95534.53;;;-2.95;94.99
2000;BME280;1001;48.87406500;9.59633600;2023-02-28T04:33:57;95533.72;;;-2.95;94.48
2000;BME280;1001;48.87406500;9.59633600;2023-02-28T04:36:24;95534.38;;;-2.93;95.30
2000;BME280;1001;48.87406500;9.59633600;2023-02-28T04:38:51;95532.63;;;-2.93;95.36
2000;BME280;1001;48.87406500;9.59633600;2023-02-28T04:41:19;95529.41;;;-2.95;94.89
2000;BME280;1001;48.87406500;9.59633600;2023-02-28T04:43:46;95532.78;;;-2.85;95.10
2000;BME280;1001;48.87406500;9.59633600;2023-02-28T04:46:12;95528.72;;;-2.87;94.85
2000;BME280;1001;48.87406500;9.59633600;2023-02-28T04:48:39;95532.78;;;-2.94;94.49
2000;BME280;1001;48.87406500;9.59633600;2023-02-28T04:51:08;95527.00;;;-2.96;94.32
2000;BME280;1001;48.87406500;9.59633600;2023-02-28T04:53:36;95536.25;;;-2.86;93.96
2000;BME280;1001;48.87406500;9.59633600;2023-02-28T04:56:03;95532.09;;;-2.87;94.00
2000;BME280;1001;48.87406500;9.59633600;2023-02-28T04:58:31;95539.06;;;-2.79;93.45
2000;BME280;1001;48.87406500;9.59633600;2023-02-28T05:01:02;95538.41;;;-2.81;93.36
2000;BME280;1001;48.87406500;9.59633600;2023-02-28T05:03:29;95536.13;;;-2.74;93.10
2000;BME280;1001;48.87406500;9.59633600;2023-02-28T05:05:55;95534.09;;;-2.81;92.82
2000;BME280;1001;48.87406500;9.59633600;2023-02-28T05:08:22;95544.31;;;-2.71;92.93
2000;BME280;1001;48.87406500;9.59633600;2023-02-28T05:10:48;95542.31;;;-2.67;92.54
2000;BME280;1001;48.87406500;9.59633600;2023-02-28T05:13:15;95538.69;;;-2.74;92.19
2000;BME280;1001;48.87406500;9.59633600;2023-02-28T05:15:43;95545.25;;;-2.72;91.62
2000;BME280;1001;48.87406500;9.59633600;2023-02-28T05:18:09;95541.34;;;-2.66;91.40
2000;BME280;1001;48.87406500;9.59633600;2023-02-28T05:20:36;95528.81;;;-2.69;92.02
2000;BME280;1001;48.87406500;9.59633600;2023-02-28T05:23:03;95526.16;;;-2.68;92.61
2000;BME280;1001;48.87406500;9.59633600;2023-02-28T05:25:29;95521.53;;;-2.64;92.32
2000;BME280;1001;48.87406500;9.59633600;2023-02-28T05:27:56;95536.00;;;-2.73;91.85
2000;BME280;1001;48.87406500;9.59633600;2023-02-28T05:30:22;95528.31;;;-2.73;91.84
2000;BME280;1001;48.87406500;9.59633600;2023-02-28T05:32:51;95545.00;;;-2.69;91.59
2000;BME280;1001;48.87406500;9.59633600;2023-02-28T05:35:18;95537.88;;;-2.65;91.41
2000;BME280;1001;48.87406500;9.59633600;2023-02-28T05:37:44;95536.38;;;-2.68;91.11
2000;BME280;1001;48.87406500;9.59633600;2023-02-28T05:40:11;95537.31;;;-2.69;91.28
2000;BME280;1001;48.87406500;9.59633600;2023-02-28T05:42:38;95537.88;;;-2.65;90.85
2000;BME280;1001;48.87406500;9.59633600;2023-02-28T05:45:06;95544.72;;;-2.66;91.27
2000;BME280;1001;48.87406500;9.59633600;2023-02-28T05:47:33;95544.28;;;-2.52;91.30
2000;BME280;1001;48.87406500;9.59633600;2023-02-28T05:50:01;95533.66;;;-2.57;90.75
2000;BME280;1001;48.87406500;9.59633600;2023-02-28T05:52:28;95542.41;;;-2.59;91.36
2000;BME280;1001;48.87406500;9.59633600;2023-02-28T05:54:55;95535.56;;;-2.68;91.33
2000;BME280;1001;48.87406500;9.59633600;2023-02-28T05:57:22;95537.19;;;-2.67;91.51
2000;BME280;1001;48.87406500;9.59633600;2023-02-28T05:59:49;95540.00;;;-2.61;91.29
2000;BME280;1001;48.87406500;9.59633600;2023-02-28T06:02:17;95539.88;;;-2.69;91.43
2000;BME280;1001;48.87406500;9.59633600;2023-02-28T06:04:44;95536.50;;;-2.69;90.77
2000;BME280;1001;48.87406500;9.59633600;2023-02-28T06:07:12;95538.66;;;-2.65;90.65
2000;BME280;1001;48.87406500;9.59633600;2023-02-28T06:09:38;95558.84;;;-2.62;90.66
2000;BME280;1001;48.87406500;9.59633600;2023-02-28T06:12:06;95543.91;;;-2.57;90.64
2000;BME280;1001;48.87406500;9.59633600;2023-02-28T06:14:35;95553.22;;;-2.65;90.91
2000;BME280;1001;48.87406500;9.59633600;2023-02-28T06:17:02;95562.38;;;-2.63;90.85
2000;BME280;1001;48.87406500;9.59633600;2023-02-28T06:19:29;95560.22;;;-2.58;91.22
2000;BME280;1001;48.87406500;9.59633600;2023-02-28T06:21:56;95562.38;;;-2.53;90.80
2000;BME280;1001;48.87406500;9.59633600;2023-02-28T06:24:26;95562.47;;;-2.55;90.92
2000;BME280;1001;48.87406500;9.59633600;2023-02-28T06:26:54;95561.53;;;-2.54;90.78
2000;BME280;1001;48.87406500;9.59633600;2023-02-28T06:29:21;95562.38;;;-2.63;90.32
2000;BME280;1001;48.87406500;9.59633600;2023-02-28T06:31:47;95564.78;;;-2.52;90.64
2000;BME280;1001;48.87406500;9.59633600;2023-02-28T06:34:14;95569.66;;;-2.58;90.70
2000;BME280;1001;48.87406500;9.59633600;2023-02-28T06:36:41;95566.00;;;-2.56;90.98
2000;BME280;1001;48.87406500;9.59633600;2023-02-28T06:39:09;95574.63;;;-2.57;90.22
2000;BME280;1001;48.87406500;9.59633600;2023-02-28T06:41:37;95578.41;;;-2.61;90.50
2000;BME280;1001;48.87406500;9.59633600;2023-02-28T06:44:05;95572.59;;;-2.53;90.02
2000;BME280;1001;48.87406500;9.59633600;2023-02-28T06:46:32;95572.44;;;-2.52;89.63
2000;BME280;1001;48.87406500;9.59633600;2023-02-28T06:48:58;95576.91;;;-2.54;89.50
2000;BME280;1001;48.87406500;9.59633600;2023-02-28T06:51:25;95587.81;;;-2.52;89.81
2000;BME280;1001;48.87406500;9.59633600;2023-02-28T06:53:52;95585.50;;;-2.45;89.44
2000;BME280;1001;48.87406500;9.59633600;2023-02-28T06:56:19;95596.81;;;-2.48;89.49
2000;BME280;1001;48.87406500;9.59633600;2023-02-28T06:58:48;95593.59;;;-2.50;89.26
2000;BME280;1001;48.87406500;9.59633600;2023-02-28T07:01:16;95598.44;;;-2.47;88.88
2000;BME280;1001;48.87406500;9.59633600;2023-02-28T07:03:42;95602.19;;;-2.32;88.96
2000;BME280;1001;48.87406500;9.59633600;2023-02-28T07:06:09;95603.44;;;-2.45;89.14
2000;BME280;1001;48.87406500;9.59633600;2023-02-28T07:08:36;95600.47;;;-2.50;89.68
2000;BME280;1001;48.87406500;9.59633600;2023-02-28T07:11:03;95601.81;;;-2.46;89.39
2000;BME280;1001;48.87406500;9.59633600;2023-02-28T07:13:30;95609.50;;;-2.46;89.36
2000;BME280;1001;48.87406500;9.59633600;2023-02-28T07:16:00;95605.16;;;-2.46;89.04
2000;BME280;1001;48.87406500;9.59633600;2023-02-28T07:18:27;95600.88;;;-2.45;89.07
2000;BME280;1001;48.87406500;9.59633600;2023-02-28T07:20:53;95609.59;;;-2.29;89.94
2000;BME280;1001;48.87406500;9.59633600;2023-02-28T07:23:21;95601.41;;;-2.42;88.86
2000;BME280;1001;48.87406500;9.59633600;2023-02-28T07:25:48;95601.91;;;-2.29;89.35
2000;BME280;1001;48.87406500;9.59633600;2023-02-28T07:28:15;95611.06;;;-2.26;89.17
2000;BME280;1001;48.87406500;9.59633600;2023-02-28T07:30:42;95608.78;;;-2.29;88.81
2000;BME280;1001;48.87406500;9.59633600;2023-02-28T07:33:10;95608.09;;;-2.22;88.78
2000;BME280;1001;48.87406500;9.59633600;2023-02-28T07:35:37;95609.97;;;-2.14;88.28
2000;BME280;1001;48.87406500;9.59633600;2023-02-28T07:38:03;95617.00;;;-2.16;87.77
2000;BME280;1001;48.87406500;9.59633600;2023-02-28T07:40:30;95618.88;;;-2.18;88.11
2000;BME280;1001;48.87406500;9.59633600;2023-02-28T07:42:58;95610.13;;;-2.16;87.93
2000;BME280;1001;48.87406500;9.59633600;2023-02-28T07:45:25;95624.41;;;-2.13;88.22
2000;BME280;1001;48.87406500;9.59633600;2023-02-28T07:47:54;95615.09;;;-2.14;88.09
2000;BME280;1001;48.87406500;9.59633600;2023-02-28T07:50:22;95622.50;;;-2.11;87.75
2000;BME280;1001;48.87406500;9.59633600;2023-02-28T07:52:49;95628.72;;;-2.14;87.43
2000;BME280;1001;48.87406500;9.59633600;2023-02-28T07:55:15;95630.94;;;-2.01;87.18
2000;BME280;1001;48.87406500;9.59633600;2023-02-28T07:57:43;95621.00;;;-2.04;87.79
2000;BME280;1001;48.87406500;9.59633600;2023-02-28T08:00:11;95624.91;;;-2.00;87.93
2000;BME280;1001;48.87406500;9.59633600;2023-02-28T08:02:38;95634.09;;;-2.07;87.73
2000;BME280;1001;48.87406500;9.59633600;2023-02-28T08:05:06;95623.97;;;-1.99;88.27
2000;BME280;1001;48.87406500;9.59633600;2023-02-28T08:07:34;95628.78;;;-1.96;86.82
2000;BME280;1001;48.87406500;9.59633600;2023-02-28T08:10:01;95627.69;;;-1.93;87.20
2000;BME280;1001;48.87406500;9.59633600;2023-02-28T08:12:28;95631.72;;;-1.81;86.24
2000;BME280;1001;48.87406500;9.59633600;2023-02-28T08:14:54;95624.88;;;-1.90;86.46
2000;BME280;1001;48.87406500;9.59633600;2023-02-28T08:17:21;95631.00;;;-1.74;86.70
2000;BME280;1001;48.87406500;9.59633600;2023-02-28T08:19:47;95630.31;;;-1.66;85.81
2000;BME280;1001;48.87406500;9.59633600;2023-02-28T08:22:14;95629.34;;;-1.65;84.89
2000;BME280;1001;48.87406500;9.59633600;2023-02-28T08:24:42;95632.66;;;-1.73;84.64
2000;BME280;1001;48.87406500;9.59633600;2023-02-28T08:27:09;95635.63;;;-1.50;84.76
2000;BME280;1001;48.87406500;9.59633600;2023-02-28T08:29:36;95632.69;;;-1.55;84.38
2000;BME280;1001;48.87406500;9.59633600;2023-02-28T08:32:03;95627.09;;;-1.41;85.05
2000;BME280;1001;48.87406500;9.59633600;2023-02-28T08:34:30;95625.00;;;-1.28;83.95
2000;BME280;1001;48.87406500;9.59633600;2023-02-28T08:36:57;95636.75;;;-1.08;82.73
2000;BME280;1001;48.87406500;9.59633600;2023-02-28T08:39:23;95623.94;;;-1.08;81.96
2000;BME280;1001;48.87406500;9.59633600;2023-02-28T08:41:51;95627.03;;;-0.87;80.89
2000;BME280;1001;48.87406500;9.59633600;2023-02-28T08:44:18;95627.56;;;-0.83;80.87
2000;BME280;1001;48.87406500;9.59633600;2023-02-28T08:46:46;95635.69;;;-0.70;81.39
2000;BME280;1001;48.87406500;9.59633600;2023-02-28T08:49:12;95634.59;;;-0.68;79.83
2000;BME280;1001;48.87406500;9.59633600;2023-02-28T08:51:39;95626.88;;;-0.68;79.37
2000;BME280;1001;48.87406500;9.59633600;2023-02-28T08:54:05;95628.19;;;-0.63;81.12
2000;BME280;1001;48.87406500;9.59633600;2023-02-28T08:56:32;95641.41;;;-0.58;78.63
2000;BME280;1001;48.87406500;9.59633600;2023-02-28T08:59:00;95640.25;;;-0.64;78.62
2000;BME280;1001;48.87406500;9.59633600;2023-02-28T09:01:28;95637.00;;;-0.48;77.62
2000;BME280;1001;48.87406500;9.59633600;2023-02-28T09:03:56;95628.69;;;-0.42;77.41
2000;BME280;1001;48.87406500;9.59633600;2023-02-28T09:06:24;95639.66;;;-0.40;77.63
2000;BME280;1001;48.87406500;9.59633600;2023-02-28T09:08:51;95633.97;;;-0.44;78.29
2000;BME280;1001;48.87406500;9.59633600;2023-02-28T09:11:18;95631.03;;;-0.31;77.61
2000;BME280;1001;48.87406500;9.59633600;2023-02-28T09:13:45;95641.31;;;-0.49;75.42
2000;BME280;1001;48.87406500;9.59633600;2023-02-28T09:16:14;95637.66;;;-0.46;76.43
2000;BME280;1001;48.87406500;9.59633600;2023-02-28T09:18:42;95636.72;;;-0.45;77.15
2000;BME280;1001;48.87406500;9.59633600;2023-02-28T09:21:11;95638.84;;;-0.41;75.13
2000;BME280;1001;48.87406500;9.59633600;2023-02-28T09:23:39;95642.72;;;-0.37;76.16
2000;BME280;1001;48.87406500;9.59633600;2023-02-28T09:26:06;95649.38;;;-0.26;75.36
2000;BME280;1001;48.87406500;9.59633600;2023-02-28T09:28:33;95644.00;;;-0.15;73.71
2000;BME280;1001;48.87406500;9.59633600;2023-02-28T09:30:59;95655.59;;;-0.11;74.34
2000;BME280;1001;48.87406500;9.59633600;2023-02-28T09:33:27;95655.94;;;0.20;73.96
2000;BME280;1001;48.87406500;9.59633600;2023-02-28T09:35:58;95658.84;;;0.50;74.59
2000;BME280;1001;48.87406500;9.59633600;2023-02-28T09:38:25;95641.72;;;0.33;72.32
2000;BME280;1001;48.87406500;9.59633600;2023-02-28T09:40:55;95649.13;;;0.28;72.12
2000;BME280;1001;48.87406500;9.59633600;2023-02-28T09:43:24;95655.03;;;0.29;72.55
2000;BME280;1001;48.87406500;9.59633600;2023-02-28T09:45:52;95651.03;;;0.60;71.46
2000;BME280;1001;48.87406500;9.59633600;2023-02-28T09:48:29;95660.50;;;0.59;70.73
2000;BME280;1001;48.87406500;9.59633600;2023-02-28T09:51:03;95652.94;;;0.58;71.48
2000;BME280;1001;48.87406500;9.59633600;2023-02-28T09:53:32;95659.31;;;0.46;71.33
2000;BME280;1001;48.87406500;9.59633600;2023-02-28T09:56:04;95655.88;;;0.71;70.78
2000;BME280;1001;48.87406500;9.59633600;2023-02-28T09:58:35;95650.75;;;0.71;71.49
2000;BME280;1001;48.87406500;9.59633600;2023-02-28T10:01:09;95660.84;;;0.64;70.43
2000;BME280;1001;48.87406500;9.59633600;2023-02-28T10:03:43;95663.34;;;0.90;71.51
2000;BME280;1001;48.87406500;9.59633600;2023-02-28T10:06:16;95656.78;;;0.96;71.24
2000;BME280;1001;48.87406500;9.59633600;2023-02-28T10:08:52;95667.31;;;1.18;72.84
2000;BME280;1001;48.87406500;9.59633600;2023-02-28T10:11:23;95665.88;;;1.16;70.30
2000;BME280;1001;48.87406500;9.59633600;2023-02-28T10:13:53;95671.81;;;1.08;68.79
2000;BME280;1001;48.87406500;9.59633600;2023-02-28T10:16:30;95673.13;;;1.28;68.87
2000;BME280;1001;48.87406500;9.59633600;2023-02-28T10:19:03;95678.66;;;1.66;70.21
2000;BME280;1001;48.87406500;9.59633600;2023-02-28T10:21:35;95685.94;;;2.11;67.89
2000;BME280;1001;48.87406500;9.59633600;2023-02-28T10:24:08;95685.28;;;2.17;64.60
2000;BME280;1001;48.87406500;9.59633600;2023-02-28T10:26:37;95684.31;;;2.01;64.79
2000;BME280;1001;48.87406500;9.59633600;2023-02-28T10:29:03;95680.28;;;1.83;64.09
2000;BME280;1001;48.87406500;9.59633600;2023-02-28T10:31:30;95694.94;;;1.82;64.36
2000;BME280;1001;48.87406500;9.59633600;2023-02-28T10:33:57;95683.00;;;1.57;65.94
2000;BME280;1001;48.87406500;9.59633600;2023-02-28T10:36:24;95692.00;;;1.37;67.11
2000;BME280;1001;48.87406500;9.59633600;2023-02-28T10:38:51;95686.25;;;1.51;65.82
2000;BME280;1001;48.87406500;9.59633600;2023-02-28T10:41:28;95687.47;;;1.31;65.44
2000;BME280;1001;48.87406500;9.59633600;2023-02-28T10:44:16;95692.06;;;1.11;66.78
2000;BME280;1001;48.87406500;9.59633600;2023-02-28T10:46:45;95694.94;;;0.92;67.46
2000;BME280;1001;48.87406500;9.59633600;2023-02-28T10:49:17;95684.34;;;0.69;68.64
2000;BME280;1001;48.87406500;9.59633600;2023-02-28T10:51:49;95687.63;;;0.46;68.49
2000;BME280;1001;48.87406500;9.59633600;2023-02-28T10:54:19;95697.50;;;0.58;69.72
2000;BME280;1001;48.87406500;9.59633600;2023-02-28T10:57:05;95700.00;;;0.42;69.46
2000;BME280;1001;48.87406500;9.59633600;2023-02-28T10:59:32;95695.47;;;0.70;69.93
2000;BME280;1001;48.87406500;9.59633600;2023-02-28T11:01:59;95691.22;;;0.95;69.64
2000;BME280;1001;48.87406500;9.59633600;2023-02-28T11:04:34;95695.72;;;0.93;68.95
2000;BME280;1001;48.87406500;9.59633600;2023-02-28T11:07:10;95697.34;;;0.94;66.97
2000;BME280;1001;48.87406500;9.59633600;2023-02-28T11:09:45;95687.88;;;1.02;67.84
2000;BME280;1001;48.87406500;9.59633600;2023-02-28T11:12:20;95690.91;;;0.90;67.56
2000;BME280;1001;48.87406500;9.59633600;2023-02-28T11:14:51;95687.97;;;0.85;67.60
2000;BME280;1001;48.87406500;9.59633600;2023-02-28T11:17:21;95671.94;;;0.99;68.66
2000;BME280;1001;48.87406500;9.59633600;2023-02-28T11:19:51;95686.78;;;1.21;68.13
2000;BME280;1001;48.87406500;9.59633600;2023-02-28T11:22:22;95686.31;;;1.25;67.37
2000;BME280;1001;48.87406500;9.59633600;2023-02-28T11:24:51;95677.50;;;1.36;67.25
2000;BME280;1001;48.87406500;9.59633600;2023-02-28T11:27:46;95671.97;;;1.15;66.58
2000;BME280;1001;48.87406500;9.59633600;2023-02-28T11:30:24;95681.50;;;1.22;67.03
2000;BME280;1001;48.87406500;9.59633600;2023-02-28T11:32:51;95672.00;;;1.23;68.66
2000;BME280;1001;48.87406500;9.59633600;2023-02-28T11:35:23;95677.28;;;1.13;67.15
2000;BME280;1001;48.87406500;9.59633600;2023-02-28T11:37:52;95678.13;;;1.22;66.47
2000;BME280;1001;48.87406500;9.59633600;2023-02-28T11:40:24;95680.38;;;1.33;65.90
2000;BME280;1001;48.87406500;9.59633600;2023-02-28T11:43:00;95678.44;;;1.27;66.15
2000;BME280;1001;48.87406500;9.59633600;2023-02-28T11:45:40;95670.59;;;1.45;65.51
2000;BME280;1001;48.87406500;9.59633600;2023-02-28T11:48:15;95682.06;;;1.58;67.78
2000;BME280;1001;48.87406500;9.59633600;2023-02-28T11:50:53;95673.34;;;1.59;65.32
2000;BME280;1001;48.87406500;9.59633600;2023-02-28T11:53:34;95669.97;;;1.59;67.60
2000;BME280;1001;48.87406500;9.59633600;2023-02-28T11:56:10;95664.50;;;1.70;63.93
2000;BME280;1001;48.87406500;9.59633600;2023-02-28T11:58:45;95671.94;;;1.89;63.49
2000;BME280;1001;48.87406500;9.59633600;2023-02-28T12:01:24;95678.34;;;2.09;63.23
2000;BME280;1001;48.87406500;9.59633600;2023-02-28T12:03:59;95672.22;;;2.26;63.57